sensor_id;sensor_type;location;lat;lon;timestamp;P1;durP1;ratioP1;P2;durP2;ratioP2
15712;SDS011;7957;51.608;6.916;2022-07-18T00:02:01;2.27;;;1.80;;
15712;SDS011;7957;51.608;6.916;2022-07-18T00:04:28;2.03;;;1.80;;
15712;SDS011;7957;51.608;6.916;2022-07-18T00:06:55;3.20;;;2.10;;
15712;SDS011;7957;51.608;6.916;2022-07-18T00:09:22;3.70;;;1.80;;
15712;SDS011;7957;51.608;6.916;2022-07-18T00:11:50;2.53;;;2.00;;
15712;SDS011;7957;51.608;6.916;2022-07-18T00:14:17;3.37;;;2.20;;
15712;SDS011;7957;51.608;6.916;2022-07-18T00:16:46;4.03;;;1.80;;
15712;SDS011;7957;51.608;6.916;2022-07-18T00:19:13;1.90;;;1.80;;
15712;SDS011;7957;51.608;6.916;2022-07-18T00:21:39;2.90;;;1.90;;
15712;SDS011;7957;51.608;6.916;2022-07-18T00:24:06;2.27;;;1.80;;
15712;SDS011;7957;51.608;6.916;2022-07-18T00:26:33;3.87;;;2.00;;
15712;SDS011;7957;51.608;6.916;2022-07-18T00:29:00;1.93;;;1.67;;
15712;SDS011;7957;51.608;6.916;2022-07-18T00:31:28;2.27;;;1.83;;
15712;SDS011;7957;51.608;6.916;2022-07-18T00:33:56;2.60;;;2.07;;
15712;SDS011;7957;51.608;6.916;2022-07-18T00:36:25;3.83;;;2.20;;
15712;SDS011;7957;51.608;6.916;2022-07-18T00:38:52;2.13;;;1.90;;
15712;SDS011;7957;51.608;6.916;2022-07-18T00:41:19;2.87;;;2.17;;
15712;SDS011;7957;51.608;6.916;2022-07-18T00:43:47;3.47;;;2.20;;
15712;SDS011;7957;51.608;6.916;2022-07-18T00:46:14;2.10;;;1.70;;
15712;SDS011;7957;51.608;6.916;2022-07-18T00:48:42;3.07;;;2.10;;
15712;SDS011;7957;51.608;6.916;2022-07-18T00:51:11;2.73;;;2.07;;
15712;SDS011;7957;51.608;6.916;2022-07-18T00:53:37;4.20;;;2.20;;
15712;SDS011;7957;51.608;6.916;2022-07-18T00:56:05;3.33;;;2.10;;
15712;SDS011;7957;51.608;6.916;2022-07-18T00:58:32;3.20;;;2.40;;
15712;SDS011;7957;51.608;6.916;2022-07-18T01:00:59;2.67;;;1.93;;
15712;SDS011;7957;51.608;6.916;2022-07-18T01:03:43;2.70;;;2.20;;
15712;SDS011;7957;51.608;6.916;2022-07-18T01:06:12;3.57;;;1.93;;
15712;SDS011;7957;51.608;6.916;2022-07-18T01:08:39;2.23;;;2.00;;
15712;SDS011;7957;51.608;6.916;2022-07-18T01:11:09;2.80;;;1.90;;
15712;SDS011;7957;51.608;6.916;2022-07-18T01:13:37;2.60;;;2.13;;
15712;SDS011;7957;51.608;6.916;2022-07-18T01:16:05;4.50;;;2.33;;
15712;SDS011;7957;51.608;6.916;2022-07-18T01:18:32;2.30;;;1.90;;
15712;SDS011;7957;51.608;6.916;2022-07-18T01:21:01;3.33;;;1.97;;
15712;SDS011;7957;51.608;6.916;2022-07-18T01:23:28;3.17;;;2.10;;
15712;SDS011;7957;51.608;6.916;2022-07-18T01:25:55;2.60;;;2.10;;
15712;SDS011;7957;51.608;6.916;2022-07-18T01:28:22;3.93;;;1.97;;
15712;SDS011;7957;51.608;6.916;2022-07-18T01:30:48;2.30;;;2.03;;
15712;SDS011;7957;51.608;6.916;2022-07-18T01:33:15;3.43;;;1.90;;
15712;SDS011;7957;51.608;6.916;2022-07-18T01:35:42;2.63;;;2.07;;
15712;SDS011;7957;51.608;6.916;2022-07-18T01:38:10;3.20;;;2.27;;
15712;SDS011;7957;51.608;6.916;2022-07-18T01:40:38;2.90;;;2.00;;
15712;SDS011;7957;51.608;6.916;2022-07-18T01:43:05;2.80;;;2.03;;
15712;SDS011;7957;51.608;6.916;2022-07-18T01:45:33;3.03;;;2.20;;
15712;SDS011;7957;51.608;6.916;2022-07-18T01:48:00;3.03;;;2.13;;
15712;SDS011;7957;51.608;6.916;2022-07-18T01:50:27;4.77;;;2.10;;
15712;SDS011;7957;51.608;6.916;2022-07-18T01:52:54;3.10;;;2.27;;
15712;SDS011;7957;51.608;6.916;2022-07-18T01:55:23;3.83;;;2.20;;
15712;SDS011;7957;51.608;6.916;2022-07-18T01:57:50;3.27;;;2.23;;
15712;SDS011;7957;51.608;6.916;2022-07-18T02:00:17;2.40;;;2.20;;
15712;SDS011;7957;51.608;6.916;2022-07-18T02:02:44;3.03;;;2.30;;
15712;SDS011;7957;51.608;6.916;2022-07-18T02:05:10;2.00;;;1.80;;
15712;SDS011;7957;51.608;6.916;2022-07-18T02:07:39;2.83;;;2.00;;
15712;SDS011;7957;51.608;6.916;2022-07-18T02:10:08;3.87;;;2.10;;
15712;SDS011;7957;51.608;6.916;2022-07-18T02:12:38;2.33;;;1.97;;
15712;SDS011;7957;51.608;6.916;2022-07-18T02:15:06;4.03;;;2.10;;
15712;SDS011;7957;51.608;6.916;2022-07-18T02:17:34;3.17;;;2.23;;
15712;SDS011;7957;51.608;6.916;2022-07-18T02:20:02;2.53;;;2.17;;
15712;SDS011;7957;51.608;6.916;2022-07-18T02:22:30;2.83;;;2.20;;
15712;SDS011;7957;51.608;6.916;2022-07-18T02:24:57;2.43;;;1.83;;
15712;SDS011;7957;51.608;6.916;2022-07-18T02:27:24;3.40;;;2.30;;
15712;SDS011;7957;51.608;6.916;2022-07-18T02:29:52;2.63;;;2.27;;
15712;SDS011;7957;51.608;6.916;2022-07-18T02:32:19;4.07;;;2.37;;
15712;SDS011;7957;51.608;6.916;2022-07-18T02:34:48;3.07;;;2.30;;
15712;SDS011;7957;51.608;6.916;2022-07-18T02:37:15;4.37;;;2.20;;
15712;SDS011;7957;51.608;6.916;2022-07-18T02:39:42;2.73;;;2.00;;
15712;SDS011;7957;51.608;6.916;2022-07-18T02:42:09;2.70;;;2.27;;
15712;SDS011;7957;51.608;6.916;2022-07-18T02:44:36;3.97;;;2.30;;
15712;SDS011;7957;51.608;6.916;2022-07-18T02:47:05;4.33;;;2.50;;
15712;SDS011;7957;51.608;6.916;2022-07-18T02:49:32;2.60;;;2.23;;
15712;SDS011;7957;51.608;6.916;2022-07-18T02:51:59;3.30;;;2.43;;
15712;SDS011;7957;51.608;6.916;2022-07-18T02:54:28;3.77;;;2.50;;
15712;SDS011;7957;51.608;6.916;2022-07-18T02:56:57;4.27;;;2.53;;
15712;SDS011;7957;51.608;6.916;2022-07-18T02:59:24;3.80;;;2.57;;
15712;SDS011;7957;51.608;6.916;2022-07-18T03:01:51;2.83;;;2.50;;
15712;SDS011;7957;51.608;6.916;2022-07-18T03:04:20;3.50;;;2.60;;
15712;SDS011;7957;51.608;6.916;2022-07-18T03:06:48;2.53;;;2.33;;
15712;SDS011;7957;51.608;6.916;2022-07-18T03:09:16;3.27;;;2.50;;
15712;SDS011;7957;51.608;6.916;2022-07-18T03:11:43;3.50;;;2.40;;
15712;SDS011;7957;51.608;6.916;2022-07-18T03:14:10;3.87;;;2.67;;
15712;SDS011;7957;51.608;6.916;2022-07-18T03:16:37;4.23;;;2.67;;
15712;SDS011;7957;51.608;6.916;2022-07-18T03:19:04;4.60;;;2.70;;
15712;SDS011;7957;51.608;6.916;2022-07-18T03:21:32;3.20;;;2.50;;
15712;SDS011;7957;51.608;6.916;2022-07-18T03:23:59;4.90;;;2.67;;
15712;SDS011;7957;51.608;6.916;2022-07-18T03:26:26;3.63;;;2.50;;
15712;SDS011;7957;51.608;6.916;2022-07-18T03:28:53;3.60;;;2.60;;
15712;SDS011;7957;51.608;6.916;2022-07-18T03:31:20;3.10;;;2.27;;
15712;SDS011;7957;51.608;6.916;2022-07-18T03:33:47;4.13;;;2.77;;
15712;SDS011;7957;51.608;6.916;2022-07-18T03:36:14;3.80;;;2.70;;
15712;SDS011;7957;51.608;6.916;2022-07-18T03:38:43;5.23;;;2.87;;
15712;SDS011;7957;51.608;6.916;2022-07-18T03:41:10;6.40;;;3.23;;
15712;SDS011;7957;51.608;6.916;2022-07-18T03:43:37;3.53;;;2.70;;
15712;SDS011;7957;51.608;6.916;2022-07-18T03:46:05;4.33;;;2.70;;
15712;SDS011;7957;51.608;6.916;2022-07-18T03:48:32;4.83;;;3.07;;
15712;SDS011;7957;51.608;6.916;2022-07-18T03:50:59;4.73;;;2.63;;
15712;SDS011;7957;51.608;6.916;2022-07-18T03:53:27;4.70;;;2.60;;
15712;SDS011;7957;51.608;6.916;2022-07-18T03:55:56;4.83;;;2.63;;
15712;SDS011;7957;51.608;6.916;2022-07-18T03:58:22;5.07;;;3.13;;
15712;SDS011;7957;51.608;6.916;2022-07-18T04:00:50;4.00;;;2.50;;
15712;SDS011;7957;51.608;6.916;2022-07-18T04:03:18;4.80;;;2.83;;
15712;SDS011;7957;51.608;6.916;2022-07-18T04:05:45;7.83;;;3.00;;
15712;SDS011;7957;51.608;6.916;2022-07-18T04:08:12;6.23;;;3.43;;
15712;SDS011;7957;51.608;6.916;2022-07-18T04:10:38;4.33;;;2.90;;
15712;SDS011;7957;51.608;6.916;2022-07-18T04:13:07;4.00;;;2.70;;
15712;SDS011;7957;51.608;6.916;2022-07-18T04:15:34;4.43;;;2.83;;
15712;SDS011;7957;51.608;6.916;2022-07-18T04:18:03;4.87;;;2.77;;
15712;SDS011;7957;51.608;6.916;2022-07-18T04:20:30;4.37;;;2.67;;
15712;SDS011;7957;51.608;6.916;2022-07-18T04:22:59;3.80;;;3.07;;
15712;SDS011;7957;51.608;6.916;2022-07-18T04:25:27;4.00;;;2.67;;
15712;SDS011;7957;51.608;6.916;2022-07-18T04:27:56;5.57;;;3.00;;
15712;SDS011;7957;51.608;6.916;2022-07-18T04:30:25;5.27;;;3.27;;
15712;SDS011;7957;51.608;6.916;2022-07-18T04:32:54;4.23;;;2.97;;
15712;SDS011;7957;51.608;6.916;2022-07-18T04:35:21;6.27;;;3.30;;
15712;SDS011;7957;51.608;6.916;2022-07-18T04:37:49;7.20;;;3.20;;
15712;SDS011;7957;51.608;6.916;2022-07-18T04:40:16;3.93;;;3.03;;
15712;SDS011;7957;51.608;6.916;2022-07-18T04:42:44;6.17;;;3.00;;
15712;SDS011;7957;51.608;6.916;2022-07-18T04:45:11;4.10;;;2.83;;
15712;SDS011;7957;51.608;6.916;2022-07-18T04:47:40;5.50;;;3.27;;
15712;SDS011;7957;51.608;6.916;2022-07-18T04:50:09;3.80;;;2.90;;
15712;SDS011;7957;51.608;6.916;2022-07-18T04:52:36;4.77;;;3.17;;
15712;SDS011;7957;51.608;6.916;2022-07-18T04:55:04;3.67;;;3.00;;
15712;SDS011;7957;51.608;6.916;2022-07-18T04:57:32;4.70;;;2.80;;
15712;SDS011;7957;51.608;6.916;2022-07-18T05:00:00;5.57;;;3.23;;
15712;SDS011;7957;51.608;6.916;2022-07-18T05:02:27;5.03;;;2.60;;
15712;SDS011;7957;51.608;6.916;2022-07-18T05:04:55;4.47;;;3.00;;
15712;SDS011;7957;51.608;6.916;2022-07-18T05:07:22;4.07;;;2.80;;
15712;SDS011;7957;51.608;6.916;2022-07-18T05:09:49;4.93;;;2.60;;
15712;SDS011;7957;51.608;6.916;2022-07-18T05:12:16;3.87;;;2.80;;
15712;SDS011;7957;51.608;6.916;2022-07-18T05:14:44;7.00;;;2.70;;
15712;SDS011;7957;51.608;6.916;2022-07-18T05:17:11;3.63;;;2.70;;
15712;SDS011;7957;51.608;6.916;2022-07-18T05:19:37;4.77;;;3.13;;
15712;SDS011;7957;51.608;6.916;2022-07-18T05:22:06;5.77;;;3.20;;
15712;SDS011;7957;51.608;6.916;2022-07-18T05:24:32;3.73;;;2.90;;
15712;SDS011;7957;51.608;6.916;2022-07-18T05:26:59;4.67;;;2.60;;
15712;SDS011;7957;51.608;6.916;2022-07-18T05:29:26;4.63;;;2.97;;
15712;SDS011;7957;51.608;6.916;2022-07-18T05:31:53;4.13;;;2.97;;
15712;SDS011;7957;51.608;6.916;2022-07-18T05:34:20;4.37;;;2.80;;
15712;SDS011;7957;51.608;6.916;2022-07-18T05:36:47;3.90;;;2.97;;
15712;SDS011;7957;51.608;6.916;2022-07-18T05:39:16;4.90;;;3.10;;
15712;SDS011;7957;51.608;6.916;2022-07-18T05:41:42;5.17;;;3.07;;
15712;SDS011;7957;51.608;6.916;2022-07-18T05:44:09;4.60;;;3.20;;
15712;SDS011;7957;51.608;6.916;2022-07-18T05:46:36;3.83;;;3.00;;
15712;SDS011;7957;51.608;6.916;2022-07-18T05:49:18;4.63;;;2.90;;
15712;SDS011;7957;51.608;6.916;2022-07-18T05:51:45;3.80;;;2.90;;
15712;SDS011;7957;51.608;6.916;2022-07-18T05:54:12;4.37;;;3.07;;
15712;SDS011;7957;51.608;6.916;2022-07-18T05:56:44;5.23;;;2.67;;
15712;SDS011;7957;51.608;6.916;2022-07-18T05:59:12;3.70;;;2.70;;
15712;SDS011;7957;51.608;6.916;2022-07-18T06:01:39;3.60;;;3.10;;
15712;SDS011;7957;51.608;6.916;2022-07-18T06:04:06;4.67;;;3.10;;
15712;SDS011;7957;51.608;6.916;2022-07-18T06:06:33;4.20;;;2.87;;
15712;SDS011;7957;51.608;6.916;2022-07-18T06:09:00;4.63;;;3.00;;
15712;SDS011;7957;51.608;6.916;2022-07-18T06:11:27;4.87;;;2.80;;
15712;SDS011;7957;51.608;6.916;2022-07-18T06:13:56;4.83;;;2.97;;
15712;SDS011;7957;51.608;6.916;2022-07-18T06:16:23;3.80;;;2.83;;
15712;SDS011;7957;51.608;6.916;2022-07-18T06:18:50;4.20;;;2.80;;
15712;SDS011;7957;51.608;6.916;2022-07-18T06:21:18;3.83;;;2.80;;
15712;SDS011;7957;51.608;6.916;2022-07-18T06:23:45;3.50;;;2.50;;
15712;SDS011;7957;51.608;6.916;2022-07-18T06:26:12;4.23;;;2.77;;
15712;SDS011;7957;51.608;6.916;2022-07-18T06:28:39;4.00;;;2.60;;
15712;SDS011;7957;51.608;6.916;2022-07-18T06:31:07;4.10;;;2.80;;
15712;SDS011;7957;51.608;6.916;2022-07-18T06:33:36;4.87;;;2.60;;
15712;SDS011;7957;51.608;6.916;2022-07-18T06:36:03;4.53;;;2.70;;
15712;SDS011;7957;51.608;6.916;2022-07-18T06:38:31;4.60;;;2.63;;
15712;SDS011;7957;51.608;6.916;2022-07-18T06:40:58;3.73;;;2.90;;
15712;SDS011;7957;51.608;6.916;2022-07-18T06:43:25;3.80;;;2.47;;
15712;SDS011;7957;51.608;6.916;2022-07-18T06:45:52;3.53;;;2.73;;
15712;SDS011;7957;51.608;6.916;2022-07-18T06:48:24;2.30;;;2.10;;
15712;SDS011;7957;51.608;6.916;2022-07-18T06:50:51;3.70;;;2.13;;
15712;SDS011;7957;51.608;6.916;2022-07-18T06:53:18;6.77;;;2.50;;
15712;SDS011;7957;51.608;6.916;2022-07-18T06:55:45;4.77;;;3.00;;
15712;SDS011;7957;51.608;6.916;2022-07-18T06:58:12;4.60;;;2.60;;
15712;SDS011;7957;51.608;6.916;2022-07-18T07:00:39;4.50;;;2.77;;
15712;SDS011;7957;51.608;6.916;2022-07-18T07:03:06;3.83;;;2.70;;
15712;SDS011;7957;51.608;6.916;2022-07-18T07:05:35;4.33;;;2.67;;
15712;SDS011;7957;51.608;6.916;2022-07-18T07:08:03;7.43;;;3.00;;
15712;SDS011;7957;51.608;6.916;2022-07-18T07:10:30;4.70;;;3.00;;
15712;SDS011;7957;51.608;6.916;2022-07-18T07:12:57;3.00;;;2.40;;
15712;SDS011;7957;51.608;6.916;2022-07-18T07:15:24;5.37;;;2.67;;
15712;SDS011;7957;51.608;6.916;2022-07-18T07:17:52;7.90;;;2.53;;
15712;SDS011;7957;51.608;6.916;2022-07-18T07:20:19;4.20;;;2.60;;
15712;SDS011;7957;51.608;6.916;2022-07-18T07:22:49;4.17;;;2.70;;
15712;SDS011;7957;51.608;6.916;2022-07-18T07:25:17;4.63;;;2.60;;
15712;SDS011;7957;51.608;6.916;2022-07-18T07:27:45;4.63;;;2.53;;
15712;SDS011;7957;51.608;6.916;2022-07-18T07:30:13;2.97;;;2.50;;
15712;SDS011;7957;51.608;6.916;2022-07-18T07:32:41;6.10;;;2.70;;
15712;SDS011;7957;51.608;6.916;2022-07-18T07:35:10;4.20;;;2.70;;
15712;SDS011;7957;51.608;6.916;2022-07-18T07:37:39;6.37;;;2.67;;
15712;SDS011;7957;51.608;6.916;2022-07-18T07:40:08;9.07;;;3.43;;
15712;SDS011;7957;51.608;6.916;2022-07-18T07:42:36;6.43;;;3.10;;
15712;SDS011;7957;51.608;6.916;2022-07-18T07:45:03;3.43;;;2.77;;
15712;SDS011;7957;51.608;6.916;2022-07-18T07:47:31;6.93;;;2.70;;
15712;SDS011;7957;51.608;6.916;2022-07-18T07:49:58;7.10;;;2.97;;
15712;SDS011;7957;51.608;6.916;2022-07-18T07:52:25;6.07;;;2.87;;
15712;SDS011;7957;51.608;6.916;2022-07-18T07:54:53;7.30;;;2.83;;
15712;SDS011;7957;51.608;6.916;2022-07-18T07:57:21;4.60;;;2.57;;
15712;SDS011;7957;51.608;6.916;2022-07-18T07:59:48;4.57;;;2.60;;
15712;SDS011;7957;51.608;6.916;2022-07-18T08:02:16;5.10;;;3.00;;
15712;SDS011;7957;51.608;6.916;2022-07-18T08:04:43;6.83;;;2.97;;
15712;SDS011;7957;51.608;6.916;2022-07-18T08:07:10;6.30;;;2.90;;
15712;SDS011;7957;51.608;6.916;2022-07-18T08:09:37;3.70;;;2.60;;
15712;SDS011;7957;51.608;6.916;2022-07-18T08:12:04;5.13;;;3.07;;
15712;SDS011;7957;51.608;6.916;2022-07-18T08:14:33;4.83;;;3.07;;
15712;SDS011;7957;51.608;6.916;2022-07-18T08:17:03;5.60;;;2.33;;
15712;SDS011;7957;51.608;6.916;2022-07-18T08:19:30;6.83;;;2.47;;
15712;SDS011;7957;51.608;6.916;2022-07-18T08:21:57;4.53;;;2.50;;
15712;SDS011;7957;51.608;6.916;2022-07-18T08:24:24;4.33;;;2.50;;
15712;SDS011;7957;51.608;6.916;2022-07-18T08:26:51;3.67;;;2.67;;
15712;SDS011;7957;51.608;6.916;2022-07-18T08:29:17;5.83;;;2.73;;
15712;SDS011;7957;51.608;6.916;2022-07-18T08:31:46;3.87;;;2.37;;
15712;SDS011;7957;51.608;6.916;2022-07-18T08:34:13;5.30;;;2.50;;
15712;SDS011;7957;51.608;6.916;2022-07-18T08:36:40;5.43;;;2.57;;
15712;SDS011;7957;51.608;6.916;2022-07-18T08:39:06;3.57;;;2.23;;
15712;SDS011;7957;51.608;6.916;2022-07-18T08:41:33;5.20;;;2.20;;
15712;SDS011;7957;51.608;6.916;2022-07-18T08:44:03;4.20;;;2.10;;
15712;SDS011;7957;51.608;6.916;2022-07-18T08:46:32;2.93;;;2.20;;
15712;SDS011;7957;51.608;6.916;2022-07-18T08:49:04;3.20;;;2.30;;
15712;SDS011;7957;51.608;6.916;2022-07-18T08:51:32;5.87;;;2.20;;
15712;SDS011;7957;51.608;6.916;2022-07-18T08:54:01;5.43;;;2.00;;
15712;SDS011;7957;51.608;6.916;2022-07-18T08:56:28;2.53;;;2.00;;
15712;SDS011;7957;51.608;6.916;2022-07-18T08:58:55;6.03;;;2.13;;
15712;SDS011;7957;51.608;6.916;2022-07-18T09:01:22;3.93;;;1.93;;
15712;SDS011;7957;51.608;6.916;2022-07-18T09:03:49;3.63;;;1.70;;
15712;SDS011;7957;51.608;6.916;2022-07-18T09:06:40;5.20;;;2.03;;
15712;SDS011;7957;51.608;6.916;2022-07-18T09:09:08;5.83;;;2.17;;
15712;SDS011;7957;51.608;6.916;2022-07-18T09:11:43;5.77;;;2.30;;
15712;SDS011;7957;51.608;6.916;2022-07-18T09:14:29;5.50;;;2.10;;
15712;SDS011;7957;51.608;6.916;2022-07-18T09:17:05;5.17;;;2.30;;
15712;SDS011;7957;51.608;6.916;2022-07-18T09:19:34;3.43;;;2.13;;
15712;SDS011;7957;51.608;6.916;2022-07-18T09:22:13;7.03;;;2.40;;
15712;SDS011;7957;51.608;6.916;2022-07-18T09:24:55;5.90;;;2.20;;
15712;SDS011;7957;51.608;6.916;2022-07-18T09:27:24;3.80;;;1.93;;
15712;SDS011;7957;51.608;6.916;2022-07-18T09:32:51;4.63;;;2.30;;
15712;SDS011;7957;51.608;6.916;2022-07-18T09:35:21;3.77;;;2.10;;
15712;SDS011;7957;51.608;6.916;2022-07-18T09:37:57;4.57;;;2.23;;
15712;SDS011;7957;51.608;6.916;2022-07-18T09:40:27;3.77;;;2.03;;
15712;SDS011;7957;51.608;6.916;2022-07-18T09:42:56;3.77;;;2.00;;
15712;SDS011;7957;51.608;6.916;2022-07-18T09:45:28;5.83;;;2.10;;
15712;SDS011;7957;51.608;6.916;2022-07-18T09:47:57;4.67;;;2.23;;
15712;SDS011;7957;51.608;6.916;2022-07-18T09:50:28;4.67;;;1.97;;
15712;SDS011;7957;51.608;6.916;2022-07-18T09:53:00;3.00;;;1.97;;
15712;SDS011;7957;51.608;6.916;2022-07-18T09:55:29;2.87;;;1.83;;
15712;SDS011;7957;51.608;6.916;2022-07-18T09:57:56;5.20;;;2.00;;
15712;SDS011;7957;51.608;6.916;2022-07-18T10:00:29;4.30;;;2.33;;
15712;SDS011;7957;51.608;6.916;2022-07-18T10:02:57;10.17;;;2.43;;
15712;SDS011;7957;51.608;6.916;2022-07-18T10:05:26;8.20;;;2.20;;
15712;SDS011;7957;51.608;6.916;2022-07-18T10:07:54;3.43;;;1.90;;
15712;SDS011;7957;51.608;6.916;2022-07-18T10:10:23;5.97;;;2.47;;
15712;SDS011;7957;51.608;6.916;2022-07-18T10:12:51;4.80;;;2.00;;
15712;SDS011;7957;51.608;6.916;2022-07-18T10:15:21;4.87;;;2.70;;
15712;SDS011;7957;51.608;6.916;2022-07-18T10:17:49;7.83;;;2.50;;
15712;SDS011;7957;51.608;6.916;2022-07-18T10:20:17;7.60;;;2.20;;
15712;SDS011;7957;51.608;6.916;2022-07-18T10:22:50;6.07;;;2.60;;
15712;SDS011;7957;51.608;6.916;2022-07-18T10:25:20;5.47;;;2.50;;
15712;SDS011;7957;51.608;6.916;2022-07-18T10:27:50;8.90;;;3.13;;
15712;SDS011;7957;51.608;6.916;2022-07-18T10:30:29;9.93;;;3.33;;
15712;SDS011;7957;51.608;6.916;2022-07-18T10:33:03;5.70;;;2.70;;
15712;SDS011;7957;51.608;6.916;2022-07-18T10:36:00;5.30;;;2.70;;
15712;SDS011;7957;51.608;6.916;2022-07-18T10:38:29;9.17;;;3.27;;
15712;SDS011;7957;51.608;6.916;2022-07-18T10:41:03;7.50;;;3.00;;
15712;SDS011;7957;51.608;6.916;2022-07-18T10:43:34;5.80;;;3.50;;
15712;SDS011;7957;51.608;6.916;2022-07-18T10:46:03;9.17;;;3.23;;
15712;SDS011;7957;51.608;6.916;2022-07-18T10:48:47;8.40;;;3.40;;
15712;SDS011;7957;51.608;6.916;2022-07-18T10:51:15;11.10;;;4.20;;
15712;SDS011;7957;51.608;6.916;2022-07-18T10:59:36;11.03;;;4.17;;
15712;SDS011;7957;51.608;6.916;2022-07-18T11:02:07;11.63;;;3.90;;
15712;SDS011;7957;51.608;6.916;2022-07-18T11:04:35;17.27;;;4.10;;
15712;SDS011;7957;51.608;6.916;2022-07-18T11:07:07;11.70;;;4.35;;
15712;SDS011;7957;51.608;6.916;2022-07-18T11:09:36;12.15;;;4.97;;
15712;SDS011;7957;51.608;6.916;2022-07-18T11:12:21;7.45;;;4.05;;
15712;SDS011;7957;51.608;6.916;2022-07-18T11:14:58;7.95;;;4.18;;
15712;SDS011;7957;51.608;6.916;2022-07-18T11:20:24;9.35;;;3.70;;
15712;SDS011;7957;51.608;6.916;2022-07-18T11:22:53;7.82;;;3.00;;
15712;SDS011;7957;51.608;6.916;2022-07-18T11:25:22;5.32;;;3.00;;
15712;SDS011;7957;51.608;6.916;2022-07-18T11:27:51;5.53;;;3.13;;
15712;SDS011;7957;51.608;6.916;2022-07-18T11:30:20;7.72;;;3.20;;
15712;SDS011;7957;51.608;6.916;2022-07-18T11:32:48;6.00;;;2.92;;
15712;SDS011;7957;51.608;6.916;2022-07-18T11:35:20;6.25;;;2.97;;
15712;SDS011;7957;51.608;6.916;2022-07-18T11:37:47;10.85;;;3.50;;
15712;SDS011;7957;51.608;6.916;2022-07-18T11:40:15;8.40;;;3.40;;
15712;SDS011;7957;51.608;6.916;2022-07-18T11:42:43;13.02;;;3.70;;
15712;SDS011;7957;51.608;6.916;2022-07-18T11:45:12;6.18;;;3.17;;
15712;SDS011;7957;51.608;6.916;2022-07-18T11:47:46;7.03;;;3.50;;
15712;SDS011;7957;51.608;6.916;2022-07-18T11:50:15;4.15;;;2.90;;
15712;SDS011;7957;51.608;6.916;2022-07-18T11:52:42;7.28;;;3.03;;
15712;SDS011;7957;51.608;6.916;2022-07-18T11:55:10;4.90;;;3.15;;
15712;SDS011;7957;51.608;6.916;2022-07-18T11:57:38;5.03;;;2.95;;
15712;SDS011;7957;51.608;6.916;2022-07-18T12:00:16;7.28;;;3.22;;
15712;SDS011;7957;51.608;6.916;2022-07-18T12:02:46;6.00;;;3.20;;
15712;SDS011;7957;51.608;6.916;2022-07-18T12:05:13;6.35;;;2.88;;
15712;SDS011;7957;51.608;6.916;2022-07-18T12:07:39;7.93;;;3.17;;
15712;SDS011;7957;51.608;6.916;2022-07-18T12:10:15;6.95;;;3.15;;
15712;SDS011;7957;51.608;6.916;2022-07-18T12:12:43;9.10;;;3.03;;
15712;SDS011;7957;51.608;6.916;2022-07-18T12:15:12;11.82;;;3.45;;
15712;SDS011;7957;51.608;6.916;2022-07-18T12:17:42;12.55;;;3.75;;
15712;SDS011;7957;51.608;6.916;2022-07-18T12:20:13;7.90;;;3.03;;
15712;SDS011;7957;51.608;6.916;2022-07-18T12:28:21;5.65;;;3.00;;
15712;SDS011;7957;51.608;6.916;2022-07-18T12:30:51;5.85;;;2.80;;
15712;SDS011;7957;51.608;6.916;2022-07-18T12:33:18;5.38;;;2.70;;
15712;SDS011;7957;51.608;6.916;2022-07-18T12:35:48;11.48;;;2.60;;
15712;SDS011;7957;51.608;6.916;2022-07-18T12:38:21;4.63;;;2.15;;
15712;SDS011;7957;51.608;6.916;2022-07-18T12:40:48;6.28;;;2.60;;
15712;SDS011;7957;51.608;6.916;2022-07-18T12:43:22;3.83;;;2.65;;
15712;SDS011;7957;51.608;6.916;2022-07-18T12:45:50;8.50;;;2.80;;
15712;SDS011;7957;51.608;6.916;2022-07-18T12:48:18;5.95;;;2.40;;
15712;SDS011;7957;51.608;6.916;2022-07-18T12:50:54;7.13;;;2.83;;
15712;SDS011;7957;51.608;6.916;2022-07-18T12:53:22;4.78;;;2.50;;
15712;SDS011;7957;51.608;6.916;2022-07-18T12:55:49;4.85;;;2.50;;
15712;SDS011;7957;51.608;6.916;2022-07-18T12:58:16;5.80;;;2.55;;
15712;SDS011;7957;51.608;6.916;2022-07-18T13:00:43;5.35;;;2.65;;
15712;SDS011;7957;51.608;6.916;2022-07-18T13:03:12;4.28;;;2.38;;
15712;SDS011;7957;51.608;6.916;2022-07-18T13:05:39;4.75;;;2.30;;
15712;SDS011;7957;51.608;6.916;2022-07-18T13:08:08;6.30;;;2.47;;
15712;SDS011;7957;51.608;6.916;2022-07-18T13:10:35;6.15;;;2.30;;
15712;SDS011;7957;51.608;6.916;2022-07-18T13:13:04;3.42;;;2.28;;
15712;SDS011;7957;51.608;6.916;2022-07-18T13:15:32;8.25;;;2.83;;
15712;SDS011;7957;51.608;6.916;2022-07-18T13:17:59;8.35;;;2.80;;
15712;SDS011;7957;51.608;6.916;2022-07-18T13:20:26;6.32;;;2.70;;
15712;SDS011;7957;51.608;6.916;2022-07-18T13:22:55;4.95;;;2.42;;
15712;SDS011;7957;51.608;6.916;2022-07-18T13:25:28;5.03;;;2.20;;
15712;SDS011;7957;51.608;6.916;2022-07-18T13:27:57;6.13;;;3.03;;
15712;SDS011;7957;51.608;6.916;2022-07-18T13:30:25;5.93;;;2.55;;
15712;SDS011;7957;51.608;6.916;2022-07-18T13:32:52;6.97;;;2.50;;
15712;SDS011;7957;51.608;6.916;2022-07-18T13:35:19;8.55;;;2.20;;
15712;SDS011;7957;51.608;6.916;2022-07-18T13:37:46;4.35;;;2.70;;
15712;SDS011;7957;51.608;6.916;2022-07-18T13:40:14;6.97;;;2.75;;
15712;SDS011;7957;51.608;6.916;2022-07-18T13:42:43;5.38;;;2.78;;
15712;SDS011;7957;51.608;6.916;2022-07-18T13:45:10;6.60;;;2.58;;
15712;SDS011;7957;51.608;6.916;2022-07-18T13:47:40;7.53;;;2.60;;
15712;SDS011;7957;51.608;6.916;2022-07-18T13:50:07;3.83;;;2.60;;
15712;SDS011;7957;51.608;6.916;2022-07-18T13:52:34;5.30;;;2.30;;
15712;SDS011;7957;51.608;6.916;2022-07-18T13:55:02;6.47;;;2.83;;
15712;SDS011;7957;51.608;6.916;2022-07-18T13:57:30;4.07;;;2.42;;
15712;SDS011;7957;51.608;6.916;2022-07-18T13:59:58;4.78;;;2.30;;
15712;SDS011;7957;51.608;6.916;2022-07-18T14:02:26;5.03;;;2.50;;
15712;SDS011;7957;51.608;6.916;2022-07-18T14:04:52;7.30;;;2.80;;
15712;SDS011;7957;51.608;6.916;2022-07-18T14:07:19;4.07;;;2.50;;
15712;SDS011;7957;51.608;6.916;2022-07-18T14:09:46;5.60;;;2.40;;
15712;SDS011;7957;51.608;6.916;2022-07-18T14:12:13;5.28;;;2.88;;
15712;SDS011;7957;51.608;6.916;2022-07-18T14:14:40;7.53;;;2.47;;
15712;SDS011;7957;51.608;6.916;2022-07-18T14:17:09;4.22;;;2.55;;
15712;SDS011;7957;51.608;6.916;2022-07-18T14:19:36;4.32;;;2.30;;
15712;SDS011;7957;51.608;6.916;2022-07-18T14:22:03;5.10;;;2.13;;
15712;SDS011;7957;51.608;6.916;2022-07-18T14:24:30;4.32;;;2.28;;
15712;SDS011;7957;51.608;6.916;2022-07-18T14:26:57;3.10;;;2.20;;
15712;SDS011;7957;51.608;6.916;2022-07-18T14:29:24;3.55;;;2.20;;
15712;SDS011;7957;51.608;6.916;2022-07-18T14:31:51;3.67;;;2.20;;
15712;SDS011;7957;51.608;6.916;2022-07-18T14:34:19;5.65;;;2.38;;
15712;SDS011;7957;51.608;6.916;2022-07-18T14:36:47;6.07;;;2.40;;
15712;SDS011;7957;51.608;6.916;2022-07-18T14:39:14;5.97;;;2.90;;
15712;SDS011;7957;51.608;6.916;2022-07-18T14:41:41;5.30;;;2.50;;
15712;SDS011;7957;51.608;6.916;2022-07-18T14:44:10;9.77;;;2.63;;
15712;SDS011;7957;51.608;6.916;2022-07-18T14:46:37;5.18;;;2.10;;
15712;SDS011;7957;51.608;6.916;2022-07-18T14:49:03;4.15;;;2.38;;
15712;SDS011;7957;51.608;6.916;2022-07-18T14:51:32;6.05;;;2.10;;
15712;SDS011;7957;51.608;6.916;2022-07-18T14:53:59;4.72;;;2.38;;
15712;SDS011;7957;51.608;6.916;2022-07-18T14:56:26;3.75;;;2.10;;
15712;SDS011;7957;51.608;6.916;2022-07-18T14:58:53;4.82;;;2.00;;
15712;SDS011;7957;51.608;6.916;2022-07-18T15:01:20;9.20;;;2.40;;
15712;SDS011;7957;51.608;6.916;2022-07-18T15:03:47;5.00;;;2.45;;
15712;SDS011;7957;51.608;6.916;2022-07-18T15:06:14;5.25;;;2.30;;
15712;SDS011;7957;51.608;6.916;2022-07-18T15:08:42;3.95;;;2.35;;
15712;SDS011;7957;51.608;6.916;2022-07-18T15:11:10;4.95;;;2.30;;
15712;SDS011;7957;51.608;6.916;2022-07-18T15:13:37;3.85;;;2.30;;
15712;SDS011;7957;51.608;6.916;2022-07-18T15:16:04;3.25;;;2.25;;
15712;SDS011;7957;51.608;6.916;2022-07-18T15:18:33;4.40;;;2.22;;
15712;SDS011;7957;51.608;6.916;2022-07-18T15:21:00;7.22;;;2.47;;
15712;SDS011;7957;51.608;6.916;2022-07-18T15:23:26;6.47;;;2.50;;
15712;SDS011;7957;51.608;6.916;2022-07-18T15:25:55;3.47;;;2.35;;